Ap Binh Thi, Viet Nam

3:56 PM +07 on October 16, 2019 (GMT +0700)
ho chi min | | Change Station

Elev 10 ft 10.81 °N, 106.64 °E | Updated 14 seconds ago

Partly Cloudy
Partly Cloudy
86.4 °F
Feels Like 99 °F
N
7.4
Wind Variable Wind from NNE
Gusts 10.3 mph

Today
High -- | Low -- °F
--% Chance of Precip.
Yesterday
High -- | Low -- °F
Precip. -- in
Pressure 29.71 in
Visibility 6.2 miles
Clouds Scattered Clouds 1700 ft
Few 2000 ft
Heat Index 99 °F
Dew Point 78 °F
Humidity 77%
Rainfall 0.00 in
Snow Depth Not available.
5:43 AM 5:36 PM
Waning Gibbous, 94% visible
METAR VVTS 160830Z 05004KT 360V110 9999 SCT017 FEW020TCU 33/22 Q1006 NOSIG RMK TCU/E/SW
Pressure 29.71 in
Visibility 6.2 miles
Clouds Scattered Clouds 1700 ft
Few 2000 ft
Heat Index 99 °F
Dew Point 78 °F
Humidity 77%
Rainfall 0.00 in
Snow Depth Not available.
5:43 AM 5:36 PM
Waning Gibbous, 94% visible
METAR VVTS 160830Z 05004KT 360V110 9999 SCT017 FEW020TCU 33/22 Q1006 NOSIG RMK TCU/E/SW

Get Severe Weather Alerts

Thanks for signing up!

Be on the lookout for a verification email in your inbox.

You'll start receiving the daily forecast at 6 AM.

×

10-Day Weather Forecast

No radar image for this location.
×

Almanac

Astronomy

Oct. 16, 2019 Rise Set
Actual Time
Civil Twilight
Nautical Twilight
Astronomical Twilight
Moon
Length of Visible Light
Length of Day
Tomorrow will be .
, % of the Moon is Illuminated

Today's Extremes

Country Highs Country Lows

Community

WunderPhotos

Category 6

Welcome to Category 6. This is the collective home for Weather Underground's featured writeups by Dr. Jeff Masters (right), Bob Henson (left), Chris Burt, and other regular contributors.

Nearby

Air Quality

  Air Quality AQ Index Pollutant
Not available.

Snow Depth

Station Depth Elevation

Earthquake Activity

City Distance Mag. Time & Date
Minimum magnitude displayed is 2.5.

Coastal Water Temperatures

Place Temperature

Stations

Nearby Weather Stations

Station Location Temp. Windchill Dew Point Humidity Wind Precip. Elev Updated Type